createdAt,value
2018-11-10T00:00:57.505Z,1002.74
2018-11-10T00:01:57.294Z,1002.80
2018-11-10T00:02:57.323Z,1002.81
2018-11-10T00:03:57.356Z,1002.80
2018-11-10T00:04:57.337Z,1002.77
2018-11-10T00:05:57.380Z,1002.76
2018-11-10T00:06:57.429Z,1002.72
2018-11-10T00:07:57.477Z,1002.70
2018-11-10T00:08:57.525Z,1002.69
2018-11-10T00:09:57.557Z,1002.69
2018-11-10T00:10:57.586Z,1002.67
2018-11-10T00:11:57.570Z,1002.67
2018-11-10T00:12:57.661Z,1002.65
2018-11-10T00:13:57.638Z,1002.64
2018-11-10T00:14:57.688Z,1002.61
2018-11-10T00:15:57.708Z,1002.64
2018-11-10T00:16:57.765Z,1002.64
2018-11-10T00:17:57.821Z,1002.67
2018-11-10T00:18:57.858Z,1002.65
2018-11-10T00:19:57.886Z,1002.67
2018-11-10T00:20:57.887Z,1002.65
2018-11-10T00:21:57.901Z,1002.65
2018-11-10T00:22:57.983Z,1002.66
2018-11-10T00:23:57.969Z,1002.64
2018-11-10T00:24:58.049Z,1002.62
2018-11-10T00:25:58.047Z,1002.62
2018-11-10T00:26:58.065Z,1002.57
2018-11-10T00:27:58.099Z,1002.57
2018-11-10T00:28:58.181Z,1002.52
2018-11-10T00:29:58.168Z,1002.50
2018-11-10T00:30:58.248Z,1002.49
2018-11-10T00:31:58.250Z,1002.46
2018-11-10T00:32:58.262Z,1002.41
2018-11-10T00:33:58.345Z,1002.38
2018-11-10T00:34:58.383Z,1002.38
2018-11-10T00:35:58.360Z,1002.37
2018-11-10T00:36:58.696Z,1002.34
2018-11-10T00:37:58.433Z,1002.34
2018-11-10T00:38:58.527Z,1002.38
2018-11-10T00:39:58.494Z,1002.32
2018-11-10T00:40:58.532Z,1002.31
2018-11-10T00:41:58.611Z,1002.33
2018-11-10T00:42:58.652Z,1002.34
2018-11-10T00:43:58.626Z,1002.30
2018-11-10T00:44:58.662Z,1002.32
2018-11-10T00:45:58.716Z,1002.31
2018-11-10T00:46:58.780Z,1002.29
2018-11-10T00:47:58.815Z,1002.26
2018-11-10T00:48:58.795Z,1002.24
2018-11-10T00:49:58.829Z,1002.22
2018-11-10T00:50:58.941Z,1002.21
2018-11-10T00:51:58.946Z,1002.19
2018-11-10T00:52:58.974Z,1002.20
2018-11-10T00:53:59.008Z,1002.15
2018-11-10T00:54:59.001Z,1002.18
2018-11-10T00:55:59.074Z,1002.19
2018-11-10T00:56:59.062Z,1002.19
2018-11-10T00:57:59.089Z,1002.15
2018-11-10T00:58:59.196Z,1002.13
2018-11-10T00:59:59.207Z,1002.12
2018-11-10T01:00:59.243Z,1002.14
2018-11-10T01:01:59.222Z,1002.14
2018-11-10T01:02:59.310Z,1002.13
2018-11-10T01:03:59.336Z,1002.10
2018-11-10T01:04:59.378Z,1002.12
2018-11-10T01:05:59.418Z,1002.09
2018-11-10T01:06:59.466Z,1002.11
2018-11-10T01:07:59.421Z,1002.10
2018-11-10T01:08:59.456Z,1002.09
2018-11-10T01:09:59.539Z,1002.09
2018-11-10T01:10:59.575Z,1002.01
2018-11-10T01:11:59.602Z,1001.96
2018-11-10T01:12:59.586Z,1001.99
2018-11-10T01:13:59.619Z,1001.94
2018-11-10T01:14:59.655Z,1001.93
2018-11-10T01:15:59.737Z,1001.94
2018-11-10T01:16:59.718Z,1001.90
2018-11-10T01:17:59.768Z,1001.86
2018-11-10T01:18:59.838Z,1001.82
2018-11-10T01:19:59.868Z,1001.79
2018-11-10T01:20:59.900Z,1001.79
2018-11-10T01:21:59.885Z,1001.77
2018-11-10T01:22:59.917Z,1001.77
2018-11-10T01:24:00.013Z,1001.70
2018-11-10T01:24:59.983Z,1001.66
2018-11-10T01:26:00.072Z,1001.65
2018-11-10T01:27:00.106Z,1001.59
2018-11-10T01:28:00.236Z,1001.55
2018-11-10T01:29:00.118Z,1001.59
2018-11-10T01:30:00.151Z,1001.50
2018-11-10T01:31:00.533Z,1001.52
2018-11-10T01:32:00.269Z,1001.53
2018-11-10T01:33:00.248Z,1001.50
2018-11-10T01:34:00.339Z,1001.50
2018-11-10T01:35:00.364Z,1001.52
2018-11-10T01:36:00.398Z,1001.54
2018-11-10T01:37:00.435Z,1001.52
2018-11-10T01:38:00.775Z,1001.49
2018-11-10T01:39:00.496Z,1001.51
2018-11-10T01:40:00.480Z,1001.53
2018-11-10T01:41:00.511Z,1001.55
2018-11-10T01:42:00.595Z,1001.55
2018-11-10T01:43:00.888Z,1001.55
2018-11-10T01:44:00.669Z,1001.54
2018-11-10T01:45:00.720Z,1001.54
2018-11-10T01:46:00.695Z,1001.57
2018-11-10T01:47:00.764Z,1001.54
2018-11-10T01:48:00.835Z,1001.58
2018-11-10T01:49:00.779Z,1001.58
2018-11-10T01:51:01.004Z,1001.47
2018-11-10T01:52:00.927Z,1001.45
2018-11-10T01:53:00.915Z,1001.45
2018-11-10T01:54:00.942Z,1001.46
2018-11-10T01:55:01.035Z,1001.37
2018-11-10T01:56:01.011Z,1001.37
2018-11-10T01:57:01.145Z,1001.32
2018-11-10T01:59:01.166Z,1001.30
2018-11-10T02:00:01.143Z,1001.29
2018-11-10T02:01:01.225Z,1001.28
2018-11-10T02:02:01.306Z,1001.27
2018-11-10T02:04:01.322Z,1001.25
2018-11-10T02:05:01.610Z,1001.19
2018-11-10T02:06:01.388Z,1001.18
2018-11-10T02:07:01.529Z,1001.12
2018-11-10T02:08:01.409Z,1001.12
2018-11-10T02:09:01.489Z,1001.08
2018-11-10T02:10:01.573Z,1001.07
2018-11-10T02:11:01.506Z,1001.09
2018-11-10T02:12:01.536Z,1001.07
2018-11-10T02:13:01.625Z,1001.02
2018-11-10T02:14:01.655Z,1000.98
2018-11-10T02:15:01.686Z,1000.97
2018-11-10T02:17:01.763Z,1000.91
2018-11-10T02:18:02.225Z,1000.88
2018-11-10T02:19:01.821Z,1000.86
2018-11-10T02:20:01.958Z,1000.84
2018-11-10T02:21:01.836Z,1000.81
2018-11-10T02:22:01.992Z,1000.81
2018-11-10T02:23:01.962Z,1000.81
2018-11-10T02:24:01.934Z,1000.81
2018-11-10T02:25:02.025Z,1000.82
2018-11-10T02:26:02.023Z,1000.77
2018-11-10T02:27:02.037Z,1000.78
2018-11-10T02:28:02.118Z,1000.84
2018-11-10T02:29:02.149Z,1000.84
2018-11-10T02:30:02.192Z,1000.83
2018-11-10T02:31:02.170Z,1000.74
2018-11-10T02:32:02.247Z,1000.72
2018-11-10T02:33:02.283Z,1000.74
2018-11-10T02:35:02.307Z,1000.71
2018-11-10T02:36:02.679Z,1000.66
2018-11-10T02:37:02.363Z,1000.68
2018-11-10T02:38:02.397Z,1000.64
2018-11-10T02:39:02.520Z,1000.65
2018-11-10T02:40:02.513Z,1000.64
2018-11-10T02:42:02.581Z,1000.66
2018-11-10T02:43:02.861Z,1000.64
2018-11-10T02:44:02.648Z,1000.64
2018-11-10T02:45:02.714Z,1000.59
2018-11-10T02:46:02.661Z,1000.62
2018-11-10T02:47:02.767Z,1000.58
2018-11-10T02:48:02.793Z,1000.58
2018-11-10T02:49:02.862Z,1000.58
2018-11-10T02:50:03.095Z,1000.59
2018-11-10T02:51:02.876Z,1000.60
2018-11-10T02:52:02.909Z,1000.56
2018-11-10T02:53:02.950Z,1000.59
2018-11-10T02:54:02.930Z,1000.56
2018-11-10T02:55:02.956Z,1000.58
2018-11-10T02:56:03.039Z,1000.63
2018-11-10T02:57:03.039Z,1000.60
2018-11-10T02:58:03.106Z,1000.60
2018-11-10T02:59:03.101Z,1000.56
2018-11-10T03:00:03.171Z,1000.57
2018-11-10T03:01:03.154Z,1000.55
2018-11-10T03:02:03.186Z,1000.53
2018-11-10T03:03:03.579Z,1000.56
2018-11-10T03:04:03.307Z,1000.57
2018-11-10T03:05:03.337Z,1000.58
2018-11-10T03:06:03.373Z,1000.55
2018-11-10T03:07:03.352Z,1000.58
2018-11-10T03:08:03.435Z,1000.60
2018-11-10T03:10:04.160Z,1000.61
2018-11-10T03:11:03.541Z,1000.59
2018-11-10T03:12:03.524Z,1000.60
2018-11-10T03:13:03.600Z,1000.62
2018-11-10T03:14:03.635Z,1000.65
2018-11-10T03:15:03.617Z,1000.65
2018-11-10T03:16:03.701Z,1000.64
2018-11-10T03:17:03.688Z,1000.66
2018-11-10T03:18:03.768Z,1000.64
2018-11-10T03:19:03.817Z,1000.60
2018-11-10T03:20:03.839Z,1000.65
2018-11-10T03:21:03.816Z,1000.64
2018-11-10T03:22:03.852Z,1000.66
2018-11-10T03:23:03.881Z,1000.64
2018-11-10T03:24:03.971Z,1000.60
2018-11-10T03:25:03.997Z,1000.60
2018-11-10T03:26:03.986Z,1000.64
2018-11-10T03:27:04.061Z,1000.52
2018-11-10T03:28:04.095Z,1000.50
2018-11-10T03:29:04.128Z,1000.51
2018-11-10T03:30:04.162Z,1000.42
2018-11-10T03:31:04.195Z,1000.46
2018-11-10T03:32:04.178Z,1000.43
2018-11-10T03:33:04.277Z,1000.39
2018-11-10T03:34:04.595Z,1000.37
2018-11-10T03:35:04.328Z,1000.38
2018-11-10T03:36:04.359Z,1000.44
2018-11-10T03:37:04.395Z,1000.42
2018-11-10T03:38:04.428Z,1000.43
2018-11-10T03:40:04.491Z,1000.35
2018-11-10T03:41:04.824Z,1000.41
2018-11-10T03:42:04.561Z,1000.36
2018-11-10T03:43:04.596Z,1000.30
2018-11-10T03:44:04.573Z,1000.28
2018-11-10T03:45:04.605Z,1000.25
2018-11-10T03:46:04.639Z,1000.20
2018-11-10T03:47:04.721Z,1000.21
2018-11-10T03:49:05.046Z,1000.12
2018-11-10T03:50:04.820Z,1000.13
2018-11-10T03:52:04.887Z,1000.16
2018-11-10T03:53:04.872Z,1000.15
2018-11-10T03:54:04.956Z,1000.13
2018-11-10T03:55:05.001Z,1000.05
2018-11-10T03:56:05.274Z,1000.07
2018-11-10T03:57:05.006Z,1000.03
2018-11-10T03:59:05.133Z,1000.01
2018-11-10T04:02:05.229Z,999.96
2018-11-10T04:03:05.260Z,999.94
2018-11-10T04:04:05.303Z,999.92
2018-11-10T04:05:05.318Z,999.93
2018-11-10T04:07:05.400Z,999.92
2018-11-10T04:08:05.532Z,999.89
2018-11-10T04:09:05.548Z,999.89
2018-11-10T04:10:05.491Z,999.88
2018-11-10T04:11:05.518Z,999.89
2018-11-10T04:13:05.537Z,999.82
2018-11-10T04:14:05.568Z,999.81
2018-11-10T04:15:05.653Z,999.74
2018-11-10T04:16:05.686Z,999.72
2018-11-10T04:17:05.664Z,999.74
2018-11-10T04:19:05.783Z,999.70
2018-11-10T04:20:05.840Z,999.70
2018-11-10T04:21:05.955Z,999.68
2018-11-10T04:22:05.895Z,999.69
2018-11-10T04:23:05.918Z,999.67
2018-11-10T04:24:05.896Z,999.65
2018-11-10T04:26:06.025Z,999.63
2018-11-10T04:27:06.474Z,999.59
2018-11-10T04:28:06.079Z,999.55
2018-11-10T04:29:06.112Z,999.56
2018-11-10T04:30:06.160Z,999.57
2018-11-10T04:32:06.471Z,999.46
2018-11-10T04:33:06.503Z,999.48
2018-11-10T04:35:06.335Z,999.45
2018-11-10T04:38:06.406Z,999.52
2018-11-10T04:39:06.442Z,999.48
2018-11-10T04:40:06.473Z,999.49
2018-11-10T04:41:06.454Z,999.52
2018-11-10T04:42:06.538Z,999.54
2018-11-10T04:43:06.588Z,999.51
2018-11-10T04:44:06.606Z,999.50
2018-11-10T04:46:06.670Z,999.52
2018-11-10T04:48:06.987Z,999.52
2018-11-10T04:49:06.721Z,999.50
2018-11-10T04:50:06.802Z,999.48
2018-11-10T04:51:06.792Z,999.44
2018-11-10T05:18:30.359Z,999.55
2018-11-10T05:19:30.387Z,999.57
2018-11-10T05:20:30.371Z,999.52
2018-11-10T05:21:30.411Z,999.51
2018-11-10T05:22:30.447Z,999.53
2018-11-10T05:23:30.520Z,999.51
2018-11-10T05:24:30.805Z,999.50
2018-11-10T05:25:30.560Z,999.48
2018-11-10T05:26:30.567Z,999.51
2018-11-10T05:27:30.753Z,999.50
2018-11-10T05:28:30.686Z,999.52
2018-11-10T05:29:30.669Z,999.47
2018-11-10T05:30:30.701Z,999.52
2018-11-10T05:31:31.093Z,999.46
2018-11-10T05:32:30.817Z,999.49
2018-11-10T05:33:30.852Z,999.47
2018-11-10T05:34:30.831Z,999.50
2018-11-10T05:35:30.915Z,999.48
2018-11-10T05:36:30.947Z,999.52
2018-11-10T05:37:31.005Z,999.55
2018-11-10T05:38:30.968Z,999.55
2018-11-10T05:39:31.007Z,999.51
2018-11-10T05:40:31.034Z,999.46
2018-11-10T05:41:31.172Z,999.47
2018-11-10T05:42:31.145Z,999.51
2018-11-10T05:44:31.162Z,999.53
2018-11-10T05:45:31.502Z,999.49
2018-11-10T05:46:31.230Z,999.52
2018-11-10T05:47:31.414Z,999.51
2018-11-10T05:48:31.297Z,999.50
2018-11-10T05:49:31.381Z,999.52
2018-11-10T05:50:31.363Z,999.47
2018-11-10T05:51:31.444Z,999.49
2018-11-10T05:52:31.786Z,999.48
2018-11-10T05:53:31.513Z,999.47
2018-11-10T05:54:31.510Z,999.40
2018-11-10T05:55:31.579Z,999.50
2018-11-10T05:56:31.564Z,999.51
2018-11-10T05:57:31.651Z,999.55
2018-11-10T05:58:31.794Z,999.55
2018-11-10T05:59:31.766Z,999.57
2018-11-10T06:00:31.691Z,999.59
2018-11-10T06:01:31.775Z,999.56
2018-11-10T06:03:31.840Z,999.57
2018-11-10T06:04:31.878Z,999.58
2018-11-10T06:05:32.164Z,999.52
2018-11-10T06:06:32.028Z,999.59
2018-11-10T06:07:31.975Z,999.55
2018-11-10T06:08:32.011Z,999.55
2018-11-10T06:09:32.079Z,999.53
2018-11-10T06:10:32.237Z,999.54
2018-11-10T06:11:32.071Z,999.55
2018-11-10T06:12:32.141Z,999.57
2018-11-10T06:13:32.174Z,999.57
2018-11-10T06:14:32.221Z,999.53
2018-11-10T06:16:32.273Z,999.52
2018-11-10T06:17:32.557Z,999.50
2018-11-10T06:18:32.343Z,999.49
2018-11-10T06:19:32.333Z,999.45
2018-11-10T06:20:32.369Z,999.45
2018-11-10T06:21:32.517Z,999.47
2018-11-10T06:22:32.419Z,999.44
2018-11-10T06:23:32.452Z,999.49
2018-11-10T06:24:32.486Z,999.48
2018-11-10T06:25:32.570Z,999.54
2018-11-10T06:26:32.601Z,999.49
2018-11-10T06:27:32.582Z,999.47
2018-11-10T06:28:32.666Z,999.47
2018-11-10T06:29:32.770Z,999.50
2018-11-10T06:30:32.795Z,999.44
2018-11-10T06:31:32.717Z,999.44
2018-11-10T06:32:32.775Z,999.49
2018-11-10T06:33:32.842Z,999.45
2018-11-10T06:34:32.866Z,999.47
2018-11-10T06:36:32.894Z,999.46
2018-11-10T06:37:33.242Z,999.50
2018-11-10T06:38:32.997Z,999.47
2018-11-10T06:41:33.166Z,999.52
2018-11-10T06:42:33.134Z,999.53
2018-11-10T06:43:33.164Z,999.50
2018-11-10T06:44:33.496Z,999.54
2018-11-10T06:45:33.348Z,999.56
2018-11-10T06:46:33.262Z,999.57
2018-11-10T06:47:33.253Z,999.52
2018-11-10T06:48:33.331Z,999.63
2018-11-10T06:49:33.366Z,999.65
2018-11-10T06:50:33.369Z,999.65
2018-11-10T06:51:33.679Z,999.64
2018-11-10T06:52:33.561Z,999.62
2018-11-10T06:53:33.508Z,999.66
2018-11-10T06:54:33.491Z,999.63
2018-11-10T06:55:33.509Z,999.62
2018-11-10T06:56:33.585Z,999.63
2018-11-10T06:57:33.575Z,999.68
2018-11-10T06:58:33.663Z,999.64
2018-11-10T06:59:33.643Z,999.73
2018-11-10T07:00:33.684Z,999.68
2018-11-10T07:01:33.758Z,999.69
2018-11-10T07:02:33.792Z,999.68
2018-11-10T07:03:33.860Z,999.68
2018-11-10T07:04:33.820Z,999.75
2018-11-10T07:05:33.890Z,999.78
2018-11-10T07:06:33.875Z,999.76
2018-11-10T07:07:33.909Z,999.78
2018-11-10T07:08:33.993Z,999.80
2018-11-10T07:09:34.059Z,999.81
2018-11-10T07:10:34.311Z,999.81
2018-11-10T07:11:34.052Z,999.77
2018-11-10T07:12:34.076Z,999.83
2018-11-10T07:13:34.257Z,999.78
2018-11-10T07:14:34.187Z,999.77
2018-11-10T07:15:34.290Z,999.80
2018-11-10T07:17:34.636Z,999.71
2018-11-10T07:18:34.343Z,999.72
2018-11-10T07:19:34.305Z,999.71
2018-11-10T07:20:34.338Z,999.77
2018-11-10T07:21:34.421Z,999.75
2018-11-10T07:23:34.484Z,999.78
2018-11-10T07:24:34.822Z,999.79
2018-11-10T07:25:34.556Z,999.79
2018-11-10T07:26:34.637Z,999.81
2018-11-10T07:27:34.585Z,999.85
2018-11-10T07:28:34.650Z,999.88
2018-11-10T07:31:34.750Z,999.98
2018-11-10T07:34:35.101Z,1000.03
2018-11-10T07:35:34.890Z,1000.00
2018-11-10T07:36:34.922Z,999.98
2018-11-10T07:38:34.969Z,999.93
2018-11-10T07:39:34.981Z,999.95
2018-11-10T07:40:35.087Z,999.97
2018-11-10T07:41:35.388Z,999.91
2018-11-10T07:42:35.162Z,999.96
2018-11-10T07:43:35.154Z,999.95
2018-11-10T07:44:35.246Z,999.97
2018-11-10T07:46:35.210Z,999.93
2018-11-10T07:47:35.257Z,999.93
2018-11-10T07:48:35.310Z,999.94
2018-11-10T07:49:35.348Z,999.95
2018-11-10T07:50:35.388Z,999.96
2018-11-10T07:51:35.363Z,999.99
2018-11-10T07:52:35.393Z,999.98
2018-11-10T07:53:35.728Z,1000.03
2018-11-10T07:54:35.509Z,1000.01
2018-11-10T07:55:35.493Z,999.96
2018-11-10T07:56:35.531Z,999.99
2018-11-10T07:57:35.608Z,1000.01
2018-11-10T07:58:35.591Z,999.96
2018-11-10T07:59:35.925Z,999.94
2018-11-10T08:00:35.657Z,999.93
2018-11-10T08:01:35.741Z,999.95
2018-11-10T08:02:35.727Z,999.93
2018-11-10T08:03:35.765Z,999.98
2018-11-10T08:04:35.842Z,999.95
2018-11-10T08:05:35.876Z,999.93
2018-11-10T08:06:36.158Z,999.97
2018-11-10T08:07:35.890Z,999.96
2018-11-10T08:08:35.977Z,999.94
2018-11-10T08:09:36.006Z,999.92
2018-11-10T08:10:35.987Z,999.95
2018-11-10T08:11:36.094Z,999.94
2018-11-10T08:12:36.105Z,999.95
2018-11-10T08:13:36.391Z,999.91
2018-11-10T08:15:36.212Z,999.95
2018-11-10T08:16:36.240Z,999.91
2018-11-10T08:17:36.268Z,999.96
2018-11-10T08:18:36.342Z,999.95
2018-11-10T08:19:36.339Z,999.98
2018-11-10T08:20:36.620Z,1000.03
2018-11-10T08:21:36.402Z,999.96
2018-11-10T08:22:36.435Z,999.94
2018-11-10T08:23:36.468Z,999.91
2018-11-10T08:24:36.450Z,999.91
2018-11-10T08:26:36.516Z,999.92
2018-11-10T08:27:36.849Z,999.95
2018-11-10T08:28:36.642Z,999.92
2018-11-10T08:30:36.649Z,999.99
2018-11-10T08:32:37.292Z,1000.05
2018-11-10T08:33:36.900Z,1000.04
2018-11-10T08:34:37.083Z,1000.10
2018-11-10T08:35:36.813Z,1000.06
2018-11-10T08:36:36.896Z,1000.07
2018-11-10T08:38:36.912Z,1000.10
2018-11-10T08:39:37.001Z,1000.09
2018-11-10T08:40:37.089Z,1000.07
2018-11-10T08:41:37.068Z,1000.07
2018-11-10T08:42:37.147Z,1000.08
2018-11-10T08:43:37.179Z,1000.11
2018-11-10T08:44:37.161Z,1000.13
2018-11-10T08:45:37.195Z,1000.15
2018-11-10T08:46:37.178Z,1000.20
2018-11-10T08:47:37.510Z,1000.21
2018-11-10T08:48:37.245Z,1000.17
2018-11-10T08:49:37.352Z,1000.17
2018-11-10T08:50:37.361Z,1000.14
2018-11-10T08:51:37.344Z,1000.08
2018-11-10T08:52:37.375Z,1000.09
2018-11-10T08:53:37.461Z,1000.07
2018-11-10T08:54:37.744Z,1000.12
2018-11-10T08:55:37.532Z,1000.07
2018-11-10T08:56:37.561Z,1000.05
2018-11-10T08:57:37.687Z,1000.02
2018-11-10T09:00:37.640Z,1000.15
2018-11-10T09:01:37.978Z,1000.16
2018-11-10T09:02:37.860Z,1000.17
2018-11-10T09:03:37.853Z,1000.19
2018-11-10T09:04:37.779Z,1000.17
2018-11-10T09:05:37.858Z,1000.17
2018-11-10T09:06:37.839Z,1000.20
2018-11-10T09:07:38.173Z,1000.15
2018-11-10T09:08:37.915Z,1000.16
2018-11-10T09:09:37.979Z,1000.22
2018-11-10T09:10:37.976Z,1000.16
2018-11-10T09:11:38.007Z,1000.20
2018-11-10T09:12:38.090Z,1000.17
2018-11-10T09:13:38.377Z,1000.21
2018-11-10T09:14:38.104Z,1000.20
2018-11-10T09:15:38.190Z,1000.25
2018-11-10T09:16:38.185Z,1000.22
2018-11-10T09:17:38.312Z,1000.21
2018-11-10T09:18:38.289Z,1000.23
2018-11-10T09:19:38.289Z,1000.29
2018-11-10T09:20:38.316Z,1000.25
2018-11-10T09:21:38.509Z,1000.22
2018-11-10T09:22:38.368Z,1000.22
2018-11-10T09:23:38.453Z,1000.23
2018-11-10T09:24:38.439Z,1000.21
2018-11-10T09:25:38.771Z,1000.26
2018-11-10T09:26:38.604Z,1000.27
2018-11-10T09:27:38.641Z,1000.29
2018-11-10T09:29:38.652Z,1000.32
2018-11-10T09:30:38.722Z,1000.28
2018-11-10T09:31:38.670Z,1000.31
2018-11-10T09:32:39.004Z,1000.30
2018-11-10T09:33:38.786Z,1000.32
2018-11-10T09:34:38.823Z,1000.28
2018-11-10T09:35:38.861Z,1000.29
2018-11-10T09:36:38.911Z,1000.30
2018-11-10T09:37:38.870Z,1000.27
2018-11-10T09:38:38.950Z,1000.30
2018-11-10T09:39:39.245Z,1000.38
2018-11-10T09:40:39.023Z,1000.40
2018-11-10T09:41:39.053Z,1000.35
2018-11-10T09:42:39.336Z,1000.34
2018-11-10T09:43:39.073Z,1000.33
2018-11-10T09:44:39.160Z,1000.35
2018-11-10T09:45:39.301Z,1000.34
2018-11-10T09:46:39.474Z,1000.34
2018-11-10T09:47:39.204Z,1000.30
2018-11-10T09:48:39.230Z,1000.30
2018-11-10T09:50:39.358Z,1000.33
2018-11-10T09:51:39.332Z,1000.33
2018-11-10T09:52:39.363Z,1000.32
2018-11-10T09:53:39.708Z,1000.32
2018-11-10T09:54:39.432Z,1000.33
2018-11-10T09:55:39.522Z,1000.33
2018-11-10T09:57:39.582Z,1000.31
2018-11-10T09:58:39.562Z,1000.28
2018-11-10T09:59:39.594Z,1000.30
2018-11-10T10:00:39.930Z,1000.26
2018-11-10T10:02:40.278Z,1000.28
2018-11-10T10:03:39.737Z,1000.28
2018-11-10T10:04:39.784Z,1000.28
2018-11-10T10:05:39.854Z,1000.31
2018-11-10T10:06:39.880Z,1000.29
2018-11-10T10:07:40.166Z,1000.29
2018-11-10T10:08:39.951Z,1000.30
2018-11-10T10:09:39.982Z,1000.28
2018-11-10T10:10:39.964Z,1000.26
2018-11-10T10:11:40.043Z,1000.22
2018-11-10T10:12:40.036Z,1000.24
2018-11-10T10:13:40.120Z,1000.23
2018-11-10T10:14:40.397Z,1000.25
2018-11-10T10:15:40.229Z,1000.23
2018-11-10T10:16:40.334Z,1000.24
2018-11-10T10:17:40.258Z,1000.23
2018-11-10T10:18:40.225Z,1000.26
2018-11-10T10:19:40.262Z,1000.22
2018-11-10T10:20:40.341Z,1000.21
2018-11-10T10:21:40.647Z,1000.20
2018-11-10T10:22:40.415Z,1000.29
2018-11-10T10:23:40.442Z,1000.23
2018-11-10T10:24:40.425Z,1000.24
2018-11-10T10:25:40.464Z,1000.25
2018-11-10T10:26:40.544Z,1000.26
2018-11-10T10:27:40.837Z,1000.24
2018-11-10T10:28:40.569Z,1000.24
2018-11-10T10:29:40.641Z,1000.22
2018-11-10T10:30:40.680Z,1000.18
2018-11-10T10:31:40.761Z,1000.21
2018-11-10T10:32:40.744Z,1000.21
2018-11-10T10:33:41.029Z,1000.21
2018-11-10T10:34:40.931Z,1000.19
2018-11-10T10:35:41.009Z,1000.18
2018-11-10T10:36:40.874Z,1000.17
2018-11-10T10:37:40.911Z,1000.19
2018-11-10T10:38:40.940Z,1000.19
2018-11-10T10:39:41.227Z,1000.23
2018-11-10T10:40:40.959Z,1000.28
2018-11-10T10:41:41.090Z,1000.28
2018-11-10T10:42:41.108Z,1000.24
2018-11-10T10:43:41.106Z,1000.28
2018-11-10T10:44:41.141Z,1000.29
2018-11-10T10:45:41.174Z,1000.28
2018-11-10T10:47:41.541Z,1000.27
2018-11-10T10:48:41.360Z,1000.24
2018-11-10T10:49:41.256Z,1000.29
2018-11-10T10:50:41.343Z,1000.29
2018-11-10T10:51:41.333Z,1000.25
2018-11-10T10:52:41.363Z,1000.23
2018-11-10T10:53:41.691Z,1000.22
2018-11-10T10:54:41.475Z,1000.21
2018-11-10T10:55:41.464Z,1000.20
2018-11-10T10:56:41.493Z,1000.24
2018-11-10T10:57:41.577Z,1000.18
2018-11-10T10:58:41.608Z,1000.17
2018-11-10T10:59:41.591Z,1000.16
2018-11-10T11:00:42.026Z,1000.16
2018-11-10T11:01:41.657Z,1000.16
2018-11-10T11:02:42.088Z,1000.08
2018-11-10T11:03:41.778Z,1000.06
2018-11-10T11:04:41.757Z,1000.09
2018-11-10T11:05:41.840Z,1000.05
2018-11-10T11:06:41.834Z,1000.06
2018-11-10T11:07:42.158Z,1000.07
2018-11-10T11:08:41.942Z,1000.03
2018-11-10T11:09:42.104Z,1000.03
2018-11-10T11:11:42.053Z,1000.00
2018-11-10T11:12:42.075Z,1000.01
2018-11-10T11:13:42.113Z,999.99
2018-11-10T11:14:42.406Z,1000.01
2018-11-10T11:15:42.230Z,1000.02
2018-11-10T11:16:42.189Z,1000.00
2018-11-10T11:17:42.244Z,1000.02
2018-11-10T11:19:42.408Z,1000.01
2018-11-10T11:20:42.362Z,1000.05
2018-11-10T11:21:42.635Z,1000.03
2018-11-10T11:22:42.411Z,1000.04
2018-11-10T11:23:42.393Z,1000.03
2018-11-10T11:24:42.473Z,1000.07
2018-11-10T11:25:42.521Z,1000.04
2018-11-10T11:26:42.564Z,1000.02
2018-11-10T11:27:42.624Z,1000.04
2018-11-10T11:29:42.700Z,1000.06
2018-11-10T11:30:42.709Z,1000.07
2018-11-10T11:31:42.748Z,1000.04
2018-11-10T11:32:42.706Z,1000.05
2018-11-10T11:33:42.881Z,1000.06
2018-11-10T11:34:42.832Z,1000.02
2018-11-10T11:35:43.147Z,1000.03
2018-11-10T11:37:42.915Z,1000.02
2018-11-10T11:38:42.940Z,999.99
2018-11-10T11:39:42.999Z,1000.00
2018-11-10T11:40:43.108Z,999.98
2018-11-10T11:41:43.192Z,999.95
2018-11-10T11:43:43.359Z,999.99
2018-11-10T11:44:43.143Z,999.95
2018-11-10T11:45:43.196Z,999.94
2018-11-10T11:46:43.161Z,999.88
2018-11-10T11:47:43.259Z,999.91
2018-11-10T11:48:43.584Z,999.87
2018-11-10T11:49:43.571Z,999.89
2018-11-10T11:50:43.640Z,999.88
2018-11-10T11:51:43.500Z,999.84
2018-11-10T11:52:43.380Z,999.86
2018-11-10T11:53:43.391Z,999.85
2018-11-10T11:54:43.442Z,999.84
2018-11-10T11:55:43.643Z,999.86
2018-11-10T11:56:43.491Z,999.86
2018-11-10T11:57:44.222Z,999.83
2018-11-10T11:58:43.631Z,999.82
2018-11-10T11:59:48.681Z,999.81
2018-11-10T12:00:43.719Z,999.82
2018-11-10T12:01:43.815Z,999.82
2018-11-10T12:02:43.709Z,999.82
2018-11-10T12:03:43.776Z,999.83
2018-11-10T12:04:44.059Z,999.84
2018-11-10T12:05:43.864Z,999.81
2018-11-10T12:06:43.982Z,999.77
2018-11-10T12:07:43.912Z,999.75
2018-11-10T12:08:44.458Z,999.75
2018-11-10T12:09:43.983Z,999.79
2018-11-10T12:10:43.968Z,999.76
2018-11-10T12:11:44.297Z,999.77
2018-11-10T12:12:44.083Z,999.74
2018-11-10T12:13:44.108Z,999.73
2018-11-10T12:14:44.143Z,999.70
2018-11-10T12:15:44.124Z,999.73
2018-11-10T12:17:44.266Z,999.66
2018-11-10T12:18:44.581Z,999.65
2018-11-10T12:19:44.324Z,999.66
2018-11-10T12:21:44.381Z,999.60
2018-11-10T12:22:44.462Z,999.63
2018-11-10T12:23:44.786Z,999.61
2018-11-10T12:24:58.318Z,999.60
2018-11-10T12:25:44.471Z,999.61
2018-11-10T12:26:44.589Z,999.56
2018-11-10T12:27:44.603Z,999.57
2018-11-10T12:28:44.609Z,999.57
2018-11-10T12:29:44.650Z,999.56
2018-11-10T12:31:44.757Z,999.54
2018-11-10T12:32:44.991Z,999.54
2018-11-10T12:34:44.863Z,999.49
2018-11-10T12:35:44.868Z,999.50
2018-11-10T12:36:44.835Z,999.48
2018-11-10T12:37:44.928Z,999.49
2018-11-10T12:38:45.261Z,999.47
2018-11-10T12:39:44.935Z,999.47
2018-11-10T12:40:45.030Z,999.50
2018-11-10T12:41:45.048Z,999.49
2018-11-10T12:42:45.335Z,999.47
2018-11-10T12:43:45.078Z,999.43
2018-11-10T12:44:45.165Z,999.39
2018-11-10T12:46:45.217Z,999.35
2018-11-10T12:48:45.248Z,999.34
2018-11-10T12:50:45.455Z,999.33
2018-11-10T12:51:45.647Z,999.26
2018-11-10T12:52:45.384Z,999.22
2018-11-10T12:53:45.467Z,999.21
2018-11-10T12:54:45.495Z,999.24
2018-11-10T12:55:45.524Z,999.19
2018-11-10T12:56:45.598Z,999.14
2018-11-10T12:57:45.863Z,999.17
2018-11-10T12:58:45.659Z,999.17
2018-11-10T12:59:45.716Z,999.17
2018-11-10T13:00:45.636Z,999.19
2018-11-10T13:01:45.780Z,999.21
2018-11-10T13:02:45.695Z,999.24
2018-11-10T13:04:45.811Z,999.19
2018-11-10T13:05:46.098Z,999.17
2018-11-10T13:06:45.878Z,999.15
2018-11-10T13:07:45.912Z,999.15
2018-11-10T13:08:45.905Z,999.17
2018-11-10T13:09:45.981Z,999.14
2018-11-10T13:10:46.045Z,999.16
2018-11-10T13:11:46.357Z,999.13
2018-11-10T13:12:46.332Z,999.09
2018-11-10T13:13:46.121Z,999.09
2018-11-10T13:14:46.099Z,999.08
2018-11-10T13:15:46.181Z,999.07
2018-11-10T13:16:46.213Z,999.04
2018-11-10T13:17:46.310Z,999.06
2018-11-10T13:18:46.233Z,999.09
2018-11-10T13:19:46.568Z,999.09
2018-11-10T13:21:46.382Z,999.05
2018-11-10T13:22:46.415Z,999.05
2018-11-10T13:23:46.399Z,999.03
2018-11-10T13:24:46.518Z,999.00
2018-11-10T13:26:46.550Z,998.98
2018-11-10T13:27:46.881Z,998.93
2018-11-10T13:28:46.565Z,998.93
2018-11-10T13:29:46.655Z,998.98
2018-11-10T13:31:46.796Z,998.93
2018-11-10T13:32:46.698Z,998.95
2018-11-10T13:33:46.794Z,998.89
2018-11-10T13:34:47.093Z,998.92
2018-11-10T13:35:46.873Z,998.96
2018-11-10T13:36:46.834Z,998.94
2018-11-10T13:37:46.932Z,998.93
2018-11-10T13:38:47.041Z,998.94
2018-11-10T13:39:46.933Z,998.99
2018-11-10T13:40:47.112Z,999.01
2018-11-10T13:41:47.052Z,999.02
2018-11-10T13:42:47.076Z,999.03
2018-11-10T13:43:47.130Z,999.02
2018-11-10T13:44:47.173Z,999.02
2018-11-10T13:45:47.189Z,998.97
2018-11-10T13:46:47.217Z,998.98
2018-11-10T13:47:47.505Z,998.95